createdAt,value
2018-08-20T00:00:45.724Z,20.20
2018-08-20T00:03:14.199Z,20.20
2018-08-20T00:05:46.225Z,20.10
2018-08-20T00:08:14.546Z,20.10
2018-08-20T00:10:42.840Z,20.00
2018-08-20T00:13:11.118Z,19.90
2018-08-20T00:15:39.436Z,19.90
2018-08-20T00:18:07.911Z,19.90
2018-08-20T00:20:36.178Z,19.90
2018-08-20T00:23:04.576Z,19.90
2018-08-20T00:25:32.849Z,19.80
2018-08-20T00:28:02.613Z,19.80
2018-08-20T00:30:30.884Z,19.70
2018-08-20T00:32:59.181Z,19.70
2018-08-20T00:35:27.493Z,19.70
2018-08-20T00:37:55.774Z,19.60
2018-08-20T00:40:24.187Z,19.60
2018-08-20T00:42:52.491Z,19.60
2018-08-20T00:45:20.753Z,19.50
2018-08-20T00:47:49.051Z,19.50
2018-08-20T00:50:17.377Z,19.60
2018-08-20T00:52:45.686Z,19.50
2018-08-20T00:55:13.964Z,19.40
2018-08-20T00:57:42.295Z,19.40
2018-08-20T01:00:11.313Z,19.40
2018-08-20T01:02:39.655Z,19.30
2018-08-20T01:05:08.189Z,19.30
2018-08-20T01:07:36.639Z,19.20
2018-08-20T01:10:06.634Z,19.10
2018-08-20T01:12:35.032Z,19.10
2018-08-20T01:15:03.333Z,19.00
2018-08-20T01:17:31.732Z,19.00
2018-08-20T01:20:00.071Z,18.90
2018-08-20T01:22:28.376Z,18.80
2018-08-20T01:24:56.710Z,18.80
2018-08-20T01:27:26.820Z,18.70
2018-08-20T01:29:55.398Z,18.70
2018-08-20T01:32:23.761Z,18.70
2018-08-20T01:34:52.093Z,18.80
2018-08-20T01:37:21.202Z,18.80
2018-08-20T01:39:49.892Z,18.80
2018-08-20T01:42:18.673Z,18.70
2018-08-20T01:44:47.559Z,18.70
2018-08-20T01:47:15.914Z,18.70
2018-08-20T01:49:44.229Z,18.70
2018-08-20T01:52:12.551Z,18.80
2018-08-20T01:54:40.842Z,18.90
2018-08-20T01:57:09.177Z,18.80
2018-08-20T01:59:38.335Z,18.70
2018-08-20T02:02:06.651Z,18.70
2018-08-20T02:04:34.900Z,18.70
2018-08-20T02:07:03.313Z,18.80
2018-08-20T02:09:31.646Z,18.80
2018-08-20T02:11:59.938Z,18.70
2018-08-20T02:14:28.316Z,18.70
2018-08-20T02:16:56.599Z,18.60
2018-08-20T02:19:24.853Z,18.70
2018-08-20T02:21:53.099Z,18.70
2018-08-20T02:24:21.398Z,18.70
2018-08-20T02:26:49.633Z,18.60
2018-08-20T02:29:17.914Z,18.60
2018-08-20T02:31:46.190Z,18.60
2018-08-20T02:34:14.461Z,18.60
2018-08-20T02:36:42.714Z,18.70
2018-08-20T02:39:13.090Z,18.60
2018-08-20T02:41:42.033Z,18.70
2018-08-20T02:44:11.244Z,18.80
2018-08-20T02:46:46.573Z,18.70
2018-08-20T02:49:15.473Z,18.60
2018-08-20T02:51:43.742Z,18.50
2018-08-20T02:54:12.655Z,18.40
2018-08-20T02:56:41.632Z,18.40
2018-08-20T02:59:10.021Z,18.30
2018-08-20T03:01:38.593Z,18.20
2018-08-20T03:04:07.257Z,18.10
2018-08-20T03:06:35.967Z,18.10
2018-08-20T03:09:12.632Z,18.00
2018-08-20T03:11:40.904Z,18.00
2018-08-20T03:14:09.422Z,18.00
2018-08-20T03:16:38.204Z,17.90
2018-08-20T03:19:06.887Z,17.90
2018-08-20T03:21:35.149Z,17.80
2018-08-20T03:24:03.586Z,17.80
2018-08-20T03:26:31.870Z,17.80
2018-08-20T03:29:00.709Z,17.70
2018-08-20T03:31:29.009Z,17.70
2018-08-20T03:33:57.275Z,17.60
2018-08-20T03:36:25.628Z,17.60
2018-08-20T03:38:54.021Z,17.60
2018-08-20T03:41:22.709Z,17.50
2018-08-20T03:43:51.050Z,17.50
2018-08-20T03:46:19.577Z,17.50
2018-08-20T03:48:47.965Z,17.40
2018-08-20T03:51:16.226Z,17.40
2018-08-20T03:53:44.604Z,17.40
2018-08-20T03:56:12.893Z,17.30
2018-08-20T03:58:41.366Z,17.30
2018-08-20T04:01:09.659Z,17.30
2018-08-20T04:03:37.989Z,17.30
2018-08-20T04:06:06.609Z,17.30
2018-08-20T04:08:34.888Z,17.30
2018-08-20T04:11:03.152Z,17.20
2018-08-20T04:13:31.442Z,17.20
2018-08-20T04:15:59.793Z,17.20
2018-08-20T04:18:28.096Z,17.20
2018-08-20T04:20:56.358Z,17.20
2018-08-20T04:23:24.615Z,17.20
2018-08-20T04:25:52.861Z,17.20
2018-08-20T04:28:21.118Z,17.20
2018-08-20T04:30:49.435Z,17.20
2018-08-20T04:33:17.680Z,17.20
2018-08-20T04:35:46.147Z,17.10
2018-08-20T04:38:14.458Z,17.20
2018-08-20T04:40:42.728Z,17.20
2018-08-20T04:43:11.008Z,17.20
2018-08-20T04:45:39.282Z,17.20
2018-08-20T04:48:07.566Z,17.20
2018-08-20T04:50:35.915Z,17.20
2018-08-20T04:53:04.189Z,17.30
2018-08-20T04:55:32.461Z,17.30
2018-08-20T04:58:00.810Z,17.30
2018-08-20T05:00:29.119Z,17.40
2018-08-20T05:02:57.469Z,17.40
2018-08-20T05:05:25.821Z,17.50
2018-08-20T05:07:54.070Z,17.50
2018-08-20T05:10:22.448Z,17.60
2018-08-20T05:12:50.714Z,17.70
2018-08-20T05:15:18.965Z,17.80
2018-08-20T05:17:47.242Z,17.90
2018-08-20T05:20:15.506Z,18.00
2018-08-20T05:22:43.762Z,18.20
2018-08-20T05:25:12.031Z,18.30
2018-08-20T05:27:40.292Z,18.40
2018-08-20T05:30:08.806Z,18.50
2018-08-20T05:32:37.233Z,18.60
2018-08-20T05:35:14.809Z,18.80
2018-08-20T05:37:43.203Z,19.00
2018-08-20T05:40:11.457Z,19.20
2018-08-20T05:42:39.739Z,19.40
2018-08-20T05:45:09.731Z,19.50
2018-08-20T05:47:37.942Z,19.70
2018-08-20T05:50:06.529Z,19.90
2018-08-20T05:52:34.903Z,20.00
2018-08-20T05:55:03.099Z,20.20
2018-08-20T05:57:31.370Z,20.40
2018-08-20T05:59:59.769Z,20.60
2018-08-20T06:02:28.040Z,20.70
2018-08-20T06:04:56.293Z,20.90
2018-08-20T06:07:24.597Z,21.00
2018-08-20T06:09:52.857Z,21.10
2018-08-20T06:12:21.157Z,21.10
2018-08-20T06:14:49.531Z,21.20
2018-08-20T06:17:17.791Z,21.10
2018-08-20T06:19:46.086Z,21.20
2018-08-20T06:22:14.346Z,21.40
2018-08-20T06:24:42.645Z,21.50
2018-08-20T06:27:10.878Z,21.60
2018-08-20T06:29:39.170Z,21.60
2018-08-20T06:32:07.474Z,21.60
2018-08-20T06:37:10.386Z,21.50
2018-08-20T06:39:38.654Z,21.50
2018-08-20T06:42:06.903Z,21.40
2018-08-20T06:44:35.312Z,21.40
2018-08-20T06:47:03.589Z,21.50
2018-08-20T06:49:31.946Z,21.60
2018-08-20T06:52:00.287Z,21.60
2018-08-20T06:54:28.634Z,21.60
2018-08-20T06:56:56.858Z,21.60
2018-08-20T06:59:25.214Z,21.70
2018-08-20T07:01:53.563Z,21.70
2018-08-20T07:04:21.838Z,21.80
2018-08-20T07:06:50.116Z,21.80
2018-08-20T07:09:18.378Z,21.90
2018-08-20T07:11:46.704Z,22.00
2018-08-20T07:14:14.968Z,22.00
2018-08-20T07:16:43.281Z,22.10
2018-08-20T07:19:11.567Z,22.20
2018-08-20T07:21:39.785Z,22.30
2018-08-20T07:24:08.355Z,22.40
2018-08-20T07:26:36.643Z,22.40
2018-08-20T07:29:04.930Z,22.40
2018-08-20T07:31:33.207Z,22.60
2018-08-20T07:34:01.488Z,22.80
2018-08-20T07:36:29.742Z,22.90
2018-08-20T07:38:58.018Z,22.90
2018-08-20T07:41:26.321Z,23.00
2018-08-20T07:43:54.588Z,23.20
2018-08-20T07:46:22.837Z,23.30
2018-08-20T07:48:51.143Z,23.50
2018-08-20T07:51:19.384Z,23.60
2018-08-20T07:53:47.696Z,23.80
2018-08-20T07:56:15.946Z,23.90
2018-08-20T07:58:44.250Z,23.90
2018-08-20T08:01:12.498Z,24.00
2018-08-20T08:03:40.778Z,24.20
2018-08-20T08:06:09.380Z,24.30
2018-08-20T08:08:37.721Z,24.50
2018-08-20T08:11:05.995Z,24.60
2018-08-20T08:13:34.246Z,24.80
2018-08-20T08:16:02.591Z,24.90
2018-08-20T08:18:30.847Z,25.00
2018-08-20T08:20:59.260Z,25.10
2018-08-20T08:23:27.537Z,25.20
2018-08-20T08:25:55.784Z,25.30
2018-08-20T08:28:24.027Z,25.30
2018-08-20T08:30:52.282Z,25.50
2018-08-20T08:33:20.626Z,25.60
2018-08-20T08:35:48.923Z,25.50
2018-08-20T08:38:17.174Z,25.50
2018-08-20T08:40:45.436Z,25.40
2018-08-20T08:43:13.685Z,25.40
2018-08-20T08:45:41.967Z,25.40
2018-08-20T08:48:10.213Z,25.30
2018-08-20T08:50:38.458Z,25.20
2018-08-20T08:53:06.698Z,25.20
2018-08-20T08:55:34.970Z,25.60
2018-08-20T08:58:03.322Z,25.90
2018-08-20T09:00:31.585Z,26.30
2018-08-20T09:02:59.876Z,26.60
2018-08-20T09:05:28.132Z,27.20
2018-08-20T09:07:56.353Z,28.20
2018-08-20T09:10:24.706Z,28.50
2018-08-20T09:12:52.942Z,28.50
2018-08-20T09:15:21.205Z,28.60
2018-08-20T09:17:49.437Z,29.40
2018-08-20T09:20:18.225Z,30.50
2018-08-20T09:22:46.483Z,30.80
2018-08-20T09:25:15.200Z,30.50
2018-08-20T09:27:44.604Z,30.80
2018-08-20T09:30:17.251Z,31.20
2018-08-20T09:32:46.275Z,31.40
2018-08-20T09:35:14.509Z,31.30
2018-08-20T09:37:43.002Z,31.70
2018-08-20T09:40:11.708Z,32.50
2018-08-20T09:42:40.725Z,32.50
2018-08-20T09:45:09.199Z,32.60
2018-08-20T09:47:38.573Z,32.50
2018-08-20T09:50:10.360Z,32.50
2018-08-20T09:52:38.602Z,32.50
2018-08-20T09:55:07.614Z,32.50
2018-08-20T09:57:35.919Z,32.00
2018-08-20T10:00:07.625Z,31.60
2018-08-20T10:02:35.870Z,32.10
2018-08-20T10:05:04.424Z,31.70
2018-08-20T10:07:32.718Z,32.50
2018-08-20T10:10:00.915Z,32.50
2018-08-20T10:12:29.165Z,32.30
2018-08-20T10:14:57.397Z,32.10
2018-08-20T10:17:25.729Z,31.50
2018-08-20T10:19:53.970Z,31.10
2018-08-20T10:22:22.470Z,30.70
2018-08-20T10:24:50.720Z,30.20
2018-08-20T10:27:18.962Z,31.10
2018-08-20T10:29:47.181Z,31.50
2018-08-20T10:32:15.418Z,31.20
2018-08-20T10:34:43.754Z,31.20
2018-08-20T10:37:12.006Z,30.80
2018-08-20T10:39:40.270Z,30.30
2018-08-20T10:42:08.586Z,29.40
2018-08-20T10:44:42.354Z,28.70
2018-08-20T10:47:10.626Z,28.10
2018-08-20T10:49:38.850Z,27.70
2018-08-20T10:52:07.101Z,27.30
2018-08-20T10:54:35.402Z,27.10
2018-08-20T10:57:03.649Z,27.10
2018-08-20T10:59:31.890Z,27.20
2018-08-20T11:02:00.186Z,27.20
2018-08-20T11:04:28.373Z,27.40
2018-08-20T11:06:56.621Z,27.70
2018-08-20T11:09:24.863Z,28.00
2018-08-20T11:11:53.145Z,28.20
2018-08-20T11:14:21.482Z,28.30
2018-08-20T11:16:49.799Z,28.30
2018-08-20T11:19:18.035Z,27.70
2018-08-20T11:21:46.481Z,27.30
2018-08-20T11:24:14.735Z,26.90
2018-08-20T11:26:43.222Z,27.00
2018-08-20T11:29:11.499Z,27.10
2018-08-20T11:31:39.766Z,27.20
2018-08-20T11:34:08.042Z,27.40
2018-08-20T11:36:36.415Z,27.50
2018-08-20T11:39:06.213Z,27.60
2018-08-20T11:41:34.635Z,27.50
2018-08-20T11:44:02.930Z,27.30
2018-08-20T11:46:31.469Z,27.20
2018-08-20T11:48:59.926Z,27.30
2018-08-20T11:51:28.255Z,27.50
2018-08-20T11:53:56.539Z,27.70
2018-08-20T11:56:24.798Z,27.90
2018-08-20T11:58:53.095Z,27.80
2018-08-20T12:01:21.456Z,27.90
2018-08-20T12:03:55.473Z,28.00
2018-08-20T12:06:24.865Z,28.00
2018-08-20T12:08:53.365Z,28.00
2018-08-20T12:11:21.649Z,28.10
2018-08-20T12:13:50.237Z,28.20
2018-08-20T12:16:18.499Z,28.30
2018-08-20T12:18:46.977Z,28.40
2018-08-20T12:21:15.314Z,28.50
2018-08-20T12:23:43.570Z,28.60
2018-08-20T12:26:12.015Z,28.60
2018-08-20T12:28:40.398Z,28.60
2018-08-20T12:31:08.626Z,28.60
2018-08-20T12:33:36.882Z,28.60
2018-08-20T12:36:05.135Z,28.60
2018-08-20T12:38:33.405Z,28.50
2018-08-20T12:41:01.650Z,28.40
2018-08-20T12:43:29.956Z,28.20
2018-08-20T12:45:58.206Z,28.00
2018-08-20T12:48:26.486Z,27.90
2018-08-20T12:50:54.715Z,27.70
2018-08-20T12:53:22.974Z,27.70
2018-08-20T12:55:51.218Z,27.70
2018-08-20T12:58:19.511Z,27.60
2018-08-20T13:00:47.741Z,27.40
2018-08-20T13:03:16.007Z,27.40
2018-08-20T13:05:44.238Z,27.40
2018-08-20T13:08:12.495Z,27.50
2018-08-20T13:10:40.758Z,27.60
2018-08-20T13:13:09.045Z,27.60
2018-08-20T13:15:37.309Z,27.80
2018-08-20T13:18:05.945Z,27.80
2018-08-20T13:20:34.178Z,27.80
2018-08-20T13:23:02.414Z,27.80
2018-08-20T13:25:30.651Z,27.80
2018-08-20T13:27:58.911Z,27.90
2018-08-20T13:30:27.182Z,27.90
2018-08-20T13:32:55.507Z,28.10
2018-08-20T13:35:23.733Z,28.20
2018-08-20T13:37:51.984Z,28.20
2018-08-20T13:40:20.339Z,28.20
2018-08-20T13:42:48.613Z,28.10
2018-08-20T13:45:16.835Z,28.10
2018-08-20T13:47:45.089Z,28.00
2018-08-20T13:50:14.154Z,28.00
2018-08-20T13:52:44.185Z,28.00
2018-08-20T13:55:12.416Z,28.00
2018-08-20T13:57:45.046Z,28.00
2018-08-20T14:00:14.230Z,28.10
2018-08-20T14:02:42.831Z,28.00
2018-08-20T14:05:11.078Z,27.90
2018-08-20T14:07:39.336Z,27.60
2018-08-20T14:10:08.790Z,27.60
2018-08-20T14:12:37.867Z,27.50
2018-08-20T14:15:06.574Z,27.30
2018-08-20T14:17:34.889Z,27.40
2018-08-20T14:20:03.183Z,27.40
2018-08-20T14:22:31.428Z,27.40
2018-08-20T14:24:59.736Z,27.50
2018-08-20T14:27:28.048Z,27.60
2018-08-20T14:29:56.320Z,27.60
2018-08-20T14:32:24.613Z,27.70
2018-08-20T14:34:52.862Z,27.80
2018-08-20T14:37:21.097Z,27.80
2018-08-20T14:39:49.370Z,27.80
2018-08-20T14:42:17.654Z,27.70
2018-08-20T14:44:45.999Z,27.60
2018-08-20T14:47:14.503Z,27.50
2018-08-20T14:49:42.777Z,27.50
2018-08-20T14:52:11.035Z,27.30
2018-08-20T14:54:39.825Z,27.20
2018-08-20T14:57:08.294Z,27.20
2018-08-20T14:59:36.850Z,27.10
2018-08-20T15:02:05.239Z,26.90
2018-08-20T15:04:33.424Z,26.90
2018-08-20T15:07:03.359Z,26.80
2018-08-20T15:09:32.042Z,26.80
2018-08-20T15:12:00.337Z,26.80
2018-08-20T15:14:28.585Z,26.70
2018-08-20T15:16:56.870Z,26.60
2018-08-20T15:19:25.126Z,26.70
2018-08-20T15:21:53.393Z,26.60
2018-08-20T15:24:21.717Z,26.60
2018-08-20T15:26:50.381Z,26.60
2018-08-20T15:29:19.502Z,26.60
2018-08-20T15:31:47.883Z,26.70
2018-08-20T15:34:16.358Z,26.70
2018-08-20T15:36:44.609Z,26.90
2018-08-20T15:39:13.255Z,27.00
2018-08-20T15:41:41.483Z,26.90
2018-08-20T15:44:10.403Z,26.90
2018-08-20T15:46:38.686Z,26.90
2018-08-20T15:49:07.156Z,26.80
2018-08-20T15:51:35.689Z,26.80
2018-08-20T15:54:04.000Z,26.60
2018-08-20T15:56:32.296Z,26.60
2018-08-20T15:59:00.673Z,26.50
2018-08-20T16:01:28.908Z,26.40
2018-08-20T16:03:57.183Z,26.30
2018-08-20T16:06:25.418Z,26.30
2018-08-20T16:08:53.751Z,26.30
2018-08-20T16:11:22.014Z,26.30
2018-08-20T16:13:50.272Z,26.20
2018-08-20T16:16:18.526Z,26.10
2018-08-20T16:18:46.797Z,26.10
2018-08-20T16:21:15.025Z,26.20
2018-08-20T16:23:43.269Z,26.30
2018-08-20T16:26:11.495Z,26.40
2018-08-20T16:28:39.754Z,26.30
2018-08-20T16:31:07.977Z,26.30
2018-08-20T16:33:36.229Z,26.30
2018-08-20T16:36:04.481Z,26.20
2018-08-20T16:38:32.786Z,26.10
2018-08-20T16:41:01.049Z,25.90
2018-08-20T16:43:29.310Z,25.90
2018-08-20T16:45:57.557Z,25.80
2018-08-20T16:48:25.818Z,25.60
2018-08-20T16:50:54.169Z,25.60
2018-08-20T16:53:22.425Z,25.60
2018-08-20T16:55:50.748Z,25.60
2018-08-20T16:58:19.127Z,25.60
2018-08-20T17:00:47.346Z,25.50
2018-08-20T17:03:15.683Z,25.50
2018-08-20T17:05:46.522Z,25.40
2018-08-20T17:08:45.827Z,25.40
2018-08-20T17:11:14.619Z,25.40
2018-08-20T17:13:43.006Z,25.30
2018-08-20T17:16:13.410Z,25.20
2018-08-20T17:18:41.783Z,25.20
2018-08-20T17:21:10.183Z,25.30
2018-08-20T17:23:38.477Z,25.30
2018-08-20T17:26:07.558Z,25.30
2018-08-20T17:28:35.826Z,25.30
2018-08-20T17:31:07.613Z,25.20
2018-08-20T17:33:36.403Z,25.10
2018-08-20T17:36:07.225Z,25.10
2018-08-20T17:38:35.510Z,25.00
2018-08-20T17:41:03.790Z,25.00
2018-08-20T17:43:32.082Z,24.90
2018-08-20T17:46:00.331Z,24.80
2018-08-20T17:48:31.886Z,24.80
2018-08-20T17:51:00.595Z,24.70
2018-08-20T17:53:40.526Z,24.70
2018-08-20T17:56:08.963Z,24.70
2018-08-20T17:58:37.257Z,24.60
2018-08-20T18:01:05.801Z,24.60
2018-08-20T18:03:35.277Z,24.50
2018-08-20T18:06:05.487Z,24.50
2018-08-20T18:08:34.370Z,24.40
2018-08-20T18:11:03.052Z,24.40
2018-08-20T18:13:37.935Z,24.20
2018-08-20T18:16:08.070Z,24.20
2018-08-20T18:18:37.230Z,24.10
2018-08-20T18:21:05.617Z,24.10
2018-08-20T18:23:34.913Z,24.00
2018-08-20T18:26:03.279Z,24.00
2018-08-20T18:28:39.105Z,23.90
2018-08-20T18:31:12.684Z,23.90
2018-08-20T18:33:41.846Z,23.90
2018-08-20T18:36:17.272Z,23.80
2018-08-20T18:38:59.578Z,23.80
2018-08-20T18:41:40.876Z,23.80
2018-08-20T18:44:09.166Z,23.70
2018-08-20T18:46:37.455Z,23.70
2018-08-20T18:49:05.802Z,23.50
2018-08-20T18:51:34.132Z,23.50
2018-08-20T18:54:02.461Z,23.40
2018-08-20T18:56:30.666Z,23.40
2018-08-20T18:58:58.925Z,23.30
2018-08-20T19:01:27.182Z,23.30
2018-08-20T19:03:57.184Z,23.30
2018-08-20T19:06:25.488Z,23.20
2018-08-20T19:08:53.873Z,23.30
2018-08-20T19:11:22.125Z,23.20
2018-08-20T19:13:53.039Z,23.20
2018-08-20T19:16:28.953Z,23.20
2018-08-20T19:18:57.237Z,23.10
2018-08-20T19:21:27.155Z,23.20
2018-08-20T19:23:56.841Z,23.20
2018-08-20T19:26:25.841Z,23.20
2018-08-20T19:28:54.117Z,23.20
2018-08-20T19:31:22.396Z,23.20
2018-08-20T19:33:50.738Z,23.10
2018-08-20T19:36:19.078Z,23.10
2018-08-20T19:38:47.343Z,23.10
2018-08-20T19:41:15.834Z,23.10
2018-08-20T19:43:46.451Z,23.10
2018-08-20T19:46:24.535Z,23.10
2018-08-20T19:48:57.010Z,23.00
2018-08-20T19:51:25.266Z,23.00
2018-08-20T19:53:53.534Z,23.00
2018-08-20T19:56:21.796Z,23.00
2018-08-20T19:58:50.243Z,23.00
2018-08-20T20:01:18.998Z,22.90
2018-08-20T20:03:48.744Z,22.90
2018-08-20T20:06:17.343Z,22.80
2018-08-20T20:08:45.877Z,22.70
2018-08-20T20:11:22.172Z,22.60
2018-08-20T20:13:54.597Z,22.50
2018-08-20T20:16:23.256Z,22.40
2018-08-20T20:18:51.917Z,22.40
2018-08-20T20:21:21.021Z,22.30
2018-08-20T20:23:49.369Z,22.30
2018-08-20T20:26:17.987Z,22.30
2018-08-20T20:28:46.336Z,22.30
2018-08-20T20:31:14.625Z,22.30
2018-08-20T20:33:42.962Z,22.30
2018-08-20T20:36:16.401Z,22.30
2018-08-20T20:38:45.075Z,22.30
2018-08-20T20:41:13.362Z,22.30
2018-08-20T20:43:41.673Z,22.20
2018-08-20T20:46:10.562Z,22.30
2018-08-20T20:48:39.246Z,22.20
2018-08-20T20:51:07.549Z,22.20
2018-08-20T20:53:35.834Z,22.20
2018-08-20T20:56:04.159Z,22.20
2018-08-20T20:58:35.426Z,22.20
2018-08-20T21:01:08.948Z,22.20
2018-08-20T21:03:37.326Z,22.20
2018-08-20T21:06:06.093Z,22.10
2018-08-20T21:08:39.126Z,22.10
2018-08-20T21:11:07.633Z,22.10
2018-08-20T21:13:35.877Z,22.10
2018-08-20T21:16:05.543Z,22.00
2018-08-20T21:18:35.640Z,22.00
2018-08-20T21:21:04.758Z,22.00
2018-08-20T21:23:36.441Z,21.90
2018-08-20T21:26:04.817Z,21.90
2018-08-20T21:28:40.350Z,21.80
2018-08-20T21:31:08.714Z,21.80
2018-08-20T21:33:36.986Z,21.80
2018-08-20T21:36:05.389Z,21.80
2018-08-20T21:38:34.284Z,21.80
2018-08-20T21:41:02.566Z,21.80
2018-08-20T21:43:40.774Z,21.80
2018-08-20T21:46:09.970Z,21.80
2018-08-20T21:48:38.787Z,21.80
2018-08-20T21:51:12.810Z,21.70
2018-08-20T21:53:41.082Z,21.70
2018-08-20T21:56:11.266Z,21.60
2018-08-20T21:58:40.901Z,21.60
2018-08-20T22:01:10.685Z,21.60
2018-08-20T22:03:39.307Z,21.60
2018-08-20T22:06:07.599Z,21.60
2018-08-20T22:08:35.946Z,21.60
2018-08-20T22:11:04.250Z,21.60
2018-08-20T22:13:32.549Z,21.60
2018-08-20T22:16:11.325Z,21.60
2018-08-20T22:18:40.822Z,21.50
2018-08-20T22:21:11.957Z,21.50
2018-08-20T22:23:41.178Z,21.50
2018-08-20T22:26:10.801Z,21.50
2018-08-20T22:28:39.367Z,21.50
2018-08-20T22:31:07.737Z,21.50
2018-08-20T22:33:36.657Z,21.50
2018-08-20T22:36:05.098Z,21.50
2018-08-20T22:38:45.472Z,21.50
2018-08-20T22:41:13.907Z,21.50
2018-08-20T22:43:42.232Z,21.60
2018-08-20T22:46:10.510Z,21.60
2018-08-20T22:48:38.786Z,21.70
2018-08-20T22:51:17.304Z,21.70
2018-08-20T22:53:47.060Z,21.70
2018-08-20T22:56:35.481Z,21.70
2018-08-20T22:59:06.424Z,21.70
2018-08-20T23:01:34.725Z,21.70
2018-08-20T23:04:03.072Z,21.70
2018-08-20T23:06:31.385Z,21.60
2018-08-20T23:09:03.206Z,21.60
2018-08-20T23:11:40.186Z,21.60
2018-08-20T23:14:10.209Z,21.60
2018-08-20T23:16:38.977Z,21.60
2018-08-20T23:19:07.585Z,21.60
2018-08-20T23:21:43.122Z,21.50
2018-08-20T23:24:12.453Z,21.50
2018-08-20T23:26:40.801Z,21.50
2018-08-20T23:29:09.297Z,21.50
2018-08-20T23:31:37.861Z,21.50
2018-08-20T23:34:14.134Z,21.50
2018-08-20T23:36:42.710Z,21.50
2018-08-20T23:39:14.503Z,21.40
2018-08-20T23:41:42.869Z,21.50
2018-08-20T23:44:11.343Z,21.50
2018-08-20T23:46:42.999Z,21.60
2018-08-20T23:49:11.380Z,21.50
2018-08-20T23:51:39.649Z,21.50
2018-08-20T23:54:08.191Z,21.50
2018-08-20T23:56:36.462Z,21.40
2018-08-20T23:59:04.749Z,21.40
